createdAt,value
2016-05-12T00:00:32.323Z,997.54
2016-05-12T00:01:32.341Z,997.52
2016-05-12T00:02:32.375Z,997.52
2016-05-12T00:03:32.394Z,997.53
2016-05-12T00:04:32.411Z,997.52
2016-05-12T00:05:32.446Z,997.54
2016-05-12T00:06:32.463Z,997.54
2016-05-12T00:07:32.497Z,997.53
2016-05-12T00:08:32.516Z,997.53
2016-05-12T00:09:32.549Z,997.51
2016-05-12T00:10:32.569Z,997.56
2016-05-12T00:11:32.602Z,997.51
2016-05-12T00:12:32.621Z,997.53
2016-05-12T00:13:32.655Z,997.54
2016-05-12T00:14:32.673Z,997.58
2016-05-12T00:15:32.707Z,997.52
2016-05-12T00:16:32.725Z,997.55
2016-05-12T00:17:32.759Z,997.56
2016-05-12T00:18:32.777Z,997.55
2016-05-12T00:19:32.796Z,997.54
2016-05-12T00:20:32.829Z,997.54
2016-05-12T00:21:32.864Z,997.59
2016-05-12T00:22:32.881Z,997.53
2016-05-12T00:23:32.901Z,997.53
2016-05-12T00:24:32.935Z,997.53
2016-05-12T00:25:32.953Z,997.53
2016-05-12T00:26:32.986Z,997.51
2016-05-12T00:27:33.005Z,997.55
2016-05-12T00:28:33.038Z,997.49
2016-05-12T00:29:33.056Z,997.51
2016-05-12T00:30:33.091Z,997.48
2016-05-12T00:31:33.109Z,997.51
2016-05-12T00:32:33.144Z,997.5
2016-05-12T00:33:33.161Z,997.47
2016-05-12T00:34:33.195Z,997.44
2016-05-12T00:35:33.214Z,997.49
2016-05-12T00:36:33.232Z,997.48
2016-05-12T00:37:33.266Z,997.51
2016-05-12T00:38:33.285Z,997.45
2016-05-12T00:39:33.319Z,997.43
2016-05-12T00:40:33.336Z,997.43
2016-05-12T00:41:33.371Z,997.43
2016-05-12T00:42:33.388Z,997.45
2016-05-12T00:43:33.423Z,997.42
2016-05-12T00:44:33.440Z,997.38
2016-05-12T00:45:33.474Z,997.41
2016-05-12T00:46:33.916Z,997.42
2016-05-12T00:47:33.527Z,997.41
2016-05-12T00:48:33.546Z,997.37
2016-05-12T00:49:33.579Z,997.4
2016-05-12T00:50:33.598Z,997.38
2016-05-12T00:51:33.615Z,997.35
2016-05-12T00:52:33.650Z,997.37
2016-05-12T00:53:33.668Z,997.33
2016-05-12T00:54:33.703Z,997.33
2016-05-12T00:55:33.720Z,997.31
2016-05-12T00:56:33.754Z,997.35
2016-05-12T00:57:33.773Z,997.29
2016-05-12T00:58:33.807Z,997.3
2016-05-12T00:59:33.825Z,997.29
2016-05-12T01:00:33.858Z,997.31
2016-05-12T01:01:33.878Z,997.32
2016-05-12T01:02:33.912Z,997.29
2016-05-12T01:03:33.930Z,997.31
2016-05-12T01:04:33.963Z,997.3
2016-05-12T01:05:33.982Z,997.29
2016-05-12T01:06:34.000Z,997.25
2016-05-12T01:07:34.034Z,997.26
2016-05-12T01:08:34.053Z,997.21
2016-05-12T01:09:34.086Z,997.26
2016-05-12T01:10:34.105Z,997.25
2016-05-12T01:11:34.138Z,997.18
2016-05-12T01:12:34.157Z,997.22
2016-05-12T01:13:34.191Z,997.19
2016-05-12T01:14:34.210Z,997.19
2016-05-12T01:15:34.244Z,997.18
2016-05-12T01:16:34.652Z,997.19
2016-05-12T01:17:34.295Z,997.15
2016-05-12T01:18:34.313Z,997.14
2016-05-12T01:19:34.332Z,997.14
2016-05-12T01:20:34.365Z,997.13
2016-05-12T01:21:34.385Z,997.16
2016-05-12T01:22:34.418Z,997.13
2016-05-12T01:23:34.437Z,997.13
2016-05-12T01:24:34.471Z,997.15
2016-05-12T01:25:34.489Z,997.12
2016-05-12T01:26:34.523Z,997.14
2016-05-12T01:27:34.541Z,997.12
2016-05-12T01:28:34.575Z,997.13
2016-05-12T01:29:34.593Z,997.11
2016-05-12T01:30:34.628Z,997.12
2016-05-12T01:31:34.677Z,997.09
2016-05-12T01:32:34.664Z,997.11
2016-05-12T01:33:34.697Z,997.08
2016-05-12T01:34:34.731Z,997.1
2016-05-12T01:35:34.766Z,997.08
2016-05-12T01:36:34.769Z,997.1
2016-05-12T01:37:34.803Z,997.05
2016-05-12T01:38:34.821Z,997.12
2016-05-12T01:39:34.839Z,997.06
2016-05-12T01:40:34.872Z,997.07
2016-05-12T01:41:34.908Z,997.06
2016-05-12T01:42:34.925Z,997.07
2016-05-12T01:43:34.943Z,997.07
2016-05-12T01:44:34.977Z,997.07
2016-05-12T01:45:35.011Z,997.08
2016-05-12T01:46:35.030Z,997.13
2016-05-12T01:47:35.048Z,997.14
2016-05-12T01:48:35.082Z,997.14
2016-05-12T01:49:35.101Z,997.13
2016-05-12T01:50:35.118Z,997.12
2016-05-12T01:51:35.152Z,997.09
2016-05-12T01:52:35.171Z,997.06
2016-05-12T01:53:35.220Z,997.04
2016-05-12T01:54:35.239Z,997.05
2016-05-12T01:55:35.257Z,997.03
2016-05-12T01:56:35.276Z,997.03
2016-05-12T01:57:35.309Z,997.02
2016-05-12T01:58:35.328Z,997.01
2016-05-12T01:59:35.362Z,996.98
2016-05-12T02:00:35.380Z,996.96
2016-05-12T02:01:35.647Z,996.99
2016-05-12T02:02:35.431Z,996.98
2016-05-12T02:03:35.467Z,996.95
2016-05-12T02:04:35.484Z,996.99
2016-05-12T02:05:35.502Z,996.95
2016-05-12T02:06:35.536Z,996.99
2016-05-12T02:07:35.555Z,997.01
2016-05-12T02:08:35.589Z,996.97
2016-05-12T02:09:35.607Z,996.99
2016-05-12T02:10:35.641Z,996.96
2016-05-12T02:11:35.660Z,996.94
2016-05-12T02:12:35.693Z,996.95
2016-05-12T02:13:35.711Z,996.98
2016-05-12T02:14:35.730Z,996.95
2016-05-12T02:15:35.763Z,996.92
2016-05-12T02:16:35.783Z,996.99
2016-05-12T02:17:35.816Z,996.96
2016-05-12T02:18:35.834Z,996.97
2016-05-12T02:19:35.869Z,996.98
2016-05-12T02:20:35.902Z,996.97
2016-05-12T02:21:35.921Z,997
2016-05-12T02:22:35.939Z,996.96
2016-05-12T02:23:35.957Z,997.01
2016-05-12T02:24:35.991Z,996.97
2016-05-12T02:25:36.010Z,996.99
2016-05-12T02:26:36.043Z,996.97
2016-05-12T02:27:36.062Z,996.98
2016-05-12T02:28:36.095Z,996.96
2016-05-12T02:29:36.114Z,996.94
2016-05-12T02:30:36.148Z,996.98
2016-05-12T02:31:36.167Z,996.94
2016-05-12T02:32:36.201Z,996.99
2016-05-12T02:33:36.219Z,996.95
2016-05-12T02:34:36.252Z,996.95
2016-05-12T02:35:36.271Z,996.94
2016-05-12T02:36:36.289Z,996.91
2016-05-12T02:37:36.322Z,996.91
2016-05-12T02:38:36.342Z,996.88
2016-05-12T02:39:36.375Z,996.92
2016-05-12T02:40:36.394Z,996.88
2016-05-12T02:41:36.428Z,996.9
2016-05-12T02:42:36.446Z,996.91
2016-05-12T02:43:36.464Z,996.86
2016-05-12T02:44:36.498Z,996.89
2016-05-12T02:45:36.516Z,996.84
2016-05-12T02:46:36.550Z,996.83
2016-05-12T02:47:36.569Z,996.86
2016-05-12T02:48:36.602Z,996.82
2016-05-12T02:49:36.621Z,996.77
2016-05-12T02:50:36.655Z,996.82
2016-05-12T02:51:36.674Z,996.8
2016-05-12T02:52:36.707Z,996.84
2016-05-12T02:53:36.726Z,996.81
2016-05-12T02:54:36.743Z,996.82
2016-05-12T02:55:36.778Z,996.87
2016-05-12T02:56:36.795Z,996.8
2016-05-12T02:57:36.829Z,996.78
2016-05-12T02:58:36.849Z,996.8
2016-05-12T02:59:36.867Z,996.79
2016-05-12T03:00:36.901Z,996.79
2016-05-12T03:01:37.387Z,996.78
2016-05-12T03:02:36.953Z,996.76
2016-05-12T03:03:36.970Z,996.78
2016-05-12T03:04:37.006Z,996.79
2016-05-12T03:05:37.023Z,996.77
2016-05-12T03:06:37.042Z,996.79
2016-05-12T03:07:37.075Z,996.78
2016-05-12T03:08:37.109Z,996.77
2016-05-12T03:09:37.128Z,996.75
2016-05-12T03:10:37.147Z,996.74
2016-05-12T03:11:37.180Z,996.7
2016-05-12T03:12:37.199Z,996.71
2016-05-12T03:13:37.233Z,996.72
2016-05-12T03:14:37.250Z,996.69
2016-05-12T03:15:37.269Z,996.72
2016-05-12T03:16:37.302Z,996.69
2016-05-12T03:17:37.322Z,996.69
2016-05-12T03:18:37.355Z,996.67
2016-05-12T03:19:37.374Z,996.7
2016-05-12T03:20:37.408Z,996.67
2016-05-12T03:21:37.426Z,996.68
2016-05-12T03:22:37.459Z,996.67
2016-05-12T03:23:37.478Z,996.67
2016-05-12T03:24:37.512Z,996.66
2016-05-12T03:25:37.530Z,996.71
2016-05-12T03:26:37.548Z,996.68
2016-05-12T03:27:37.582Z,996.68
2016-05-12T03:28:37.617Z,996.71
2016-05-12T03:29:37.634Z,996.68
2016-05-12T03:30:37.653Z,996.64
2016-05-12T03:31:37.687Z,996.67
2016-05-12T03:32:37.706Z,996.73
2016-05-12T03:33:37.723Z,996.7
2016-05-12T03:34:37.758Z,996.69
2016-05-12T03:35:37.775Z,996.69
2016-05-12T03:36:37.809Z,996.71
2016-05-12T03:37:37.828Z,996.69
2016-05-12T03:38:37.862Z,996.67
2016-05-12T03:39:37.881Z,996.69
2016-05-12T03:40:37.899Z,996.68
2016-05-12T03:41:37.932Z,996.69
2016-05-12T03:42:37.950Z,996.66
2016-05-12T03:43:37.985Z,996.69
2016-05-12T03:44:38.003Z,996.69
2016-05-12T03:45:38.037Z,996.65
2016-05-12T03:46:38.071Z,996.63
2016-05-12T03:47:38.089Z,996.62
2016-05-12T03:48:38.108Z,996.58
2016-05-12T03:49:38.126Z,996.64
2016-05-12T03:50:38.160Z,996.64
2016-05-12T03:51:38.179Z,996.61
2016-05-12T03:52:38.213Z,996.6
2016-05-12T03:53:38.230Z,996.54
2016-05-12T03:54:38.249Z,996.58
2016-05-12T03:55:38.282Z,996.57
2016-05-12T03:56:38.301Z,996.5
2016-05-12T03:57:38.335Z,996.55
2016-05-12T03:58:38.354Z,996.54
2016-05-12T03:59:38.388Z,996.54
2016-05-12T04:00:38.406Z,996.5
2016-05-12T04:01:38.440Z,996.49
2016-05-12T04:02:38.458Z,996.48
2016-05-12T04:03:38.476Z,996.48
2016-05-12T04:04:38.510Z,996.45
2016-05-12T04:05:38.529Z,996.46
2016-05-12T04:06:38.562Z,996.49
2016-05-12T04:07:38.581Z,996.47
2016-05-12T04:08:38.614Z,996.45
2016-05-12T04:09:38.633Z,996.46
2016-05-12T04:10:38.667Z,996.44
2016-05-12T04:11:38.686Z,996.45
2016-05-12T04:12:38.703Z,996.39
2016-05-12T04:13:38.738Z,996.38
2016-05-12T04:14:38.771Z,996.4
2016-05-12T04:15:38.789Z,996.45
2016-05-12T04:16:38.808Z,996.44
2016-05-12T04:17:38.841Z,996.44
2016-05-12T04:18:38.861Z,996.41
2016-05-12T04:19:38.879Z,996.46
2016-05-12T04:20:38.913Z,996.46
2016-05-12T04:21:38.946Z,996.4
2016-05-12T04:22:38.965Z,996.43
2016-05-12T04:23:38.982Z,996.47
2016-05-12T04:24:39.017Z,996.41
2016-05-12T04:25:39.035Z,996.4
2016-05-12T04:26:39.054Z,996.39
2016-05-12T04:27:39.103Z,996.38
2016-05-12T04:28:39.106Z,996.4
2016-05-12T04:29:39.140Z,996.41
2016-05-12T04:30:39.159Z,996.4
2016-05-12T04:31:39.192Z,996.4
2016-05-12T04:32:39.210Z,996.39
2016-05-12T04:33:39.229Z,996.41
2016-05-12T04:34:39.262Z,996.4
2016-05-12T04:35:39.281Z,996.41
2016-05-12T04:36:39.314Z,996.39
2016-05-12T04:37:39.334Z,996.39
2016-05-12T04:38:39.368Z,996.39
2016-05-12T04:39:39.386Z,996.37
2016-05-12T04:40:39.419Z,996.38
2016-05-12T04:41:39.438Z,996.37
2016-05-12T04:42:39.455Z,996.41
2016-05-12T04:43:39.490Z,996.42
2016-05-12T04:44:39.509Z,996.39
2016-05-12T04:45:39.542Z,996.42
2016-05-12T04:46:39.561Z,996.38
2016-05-12T04:47:39.594Z,996.42
2016-05-12T04:48:39.613Z,996.45
2016-05-12T04:49:39.630Z,996.44
2016-05-12T04:50:39.666Z,996.42
2016-05-12T04:51:39.683Z,996.41
2016-05-12T04:52:39.718Z,996.43
2016-05-12T04:53:39.735Z,996.45
2016-05-12T04:54:39.769Z,996.44
2016-05-12T04:55:39.788Z,996.43
2016-05-12T04:56:39.807Z,996.42
2016-05-12T04:57:39.840Z,996.39
2016-05-12T04:58:39.859Z,996.4
2016-05-12T04:59:39.908Z,996.41
2016-05-12T05:00:39.926Z,996.39
2016-05-12T05:01:39.945Z,996.45
2016-05-12T05:02:39.962Z,996.39
2016-05-12T05:03:39.998Z,996.39
2016-05-12T05:04:40.015Z,996.41
2016-05-12T05:05:40.049Z,996.4
2016-05-12T05:06:40.068Z,996.41
2016-05-12T05:07:40.101Z,996.41
2016-05-12T05:08:40.120Z,996.43
2016-05-12T05:09:40.153Z,996.43
2016-05-12T05:10:40.187Z,996.42
2016-05-12T05:11:40.190Z,996.41
2016-05-12T05:12:40.225Z,996.44
2016-05-12T05:13:40.242Z,996.42
2016-05-12T05:14:40.277Z,996.46
2016-05-12T05:15:40.294Z,996.45
2016-05-12T05:16:40.313Z,996.44
2016-05-12T05:17:40.347Z,996.46
2016-05-12T05:18:40.381Z,996.5
2016-05-12T05:19:40.399Z,996.44
2016-05-12T05:20:40.418Z,996.48
2016-05-12T05:21:40.452Z,996.44
2016-05-12T05:22:40.469Z,996.46
2016-05-12T05:23:40.505Z,996.49
2016-05-12T05:24:40.522Z,996.38
2016-05-12T05:25:40.541Z,996.43
2016-05-12T05:26:40.574Z,996.38
2016-05-12T05:27:40.593Z,996.4
2016-05-12T05:28:40.626Z,996.44
2016-05-12T05:29:40.645Z,996.42
2016-05-12T05:30:40.679Z,996.43
2016-05-12T05:31:40.698Z,996.45
2016-05-12T05:32:40.731Z,996.51
2016-05-12T05:33:40.749Z,996.44
2016-05-12T05:34:40.784Z,996.46
2016-05-12T05:35:40.801Z,996.43
2016-05-12T05:36:40.836Z,996.46
2016-05-12T05:37:40.853Z,996.45
2016-05-12T05:38:40.873Z,996.43
2016-05-12T05:39:40.907Z,996.46
2016-05-12T05:40:40.925Z,996.47
2016-05-12T05:41:40.959Z,996.44
2016-05-12T05:42:40.977Z,996.46
2016-05-12T05:43:41.025Z,996.4
2016-05-12T05:44:41.045Z,996.43
2016-05-12T05:45:41.063Z,996.42
2016-05-12T05:46:41.253Z,996.42
2016-05-12T05:47:41.116Z,996.4
2016-05-12T05:48:41.149Z,996.4
2016-05-12T05:49:41.167Z,996.43
2016-05-12T05:50:41.202Z,996.4
2016-05-12T05:51:41.219Z,996.4
2016-05-12T05:52:41.254Z,996.38
2016-05-12T05:53:41.271Z,996.42
2016-05-12T05:54:41.305Z,996.36
2016-05-12T05:55:41.325Z,996.47
2016-05-12T05:56:41.358Z,996.49
2016-05-12T05:57:41.376Z,996.44
2016-05-12T05:58:41.410Z,996.45
2016-05-12T05:59:41.429Z,996.47
2016-05-12T06:00:41.463Z,996.46
2016-05-12T06:01:41.496Z,996.49
2016-05-12T06:02:41.515Z,996.45
2016-05-12T06:03:41.549Z,996.51
2016-05-12T06:04:41.568Z,996.53
2016-05-12T06:05:41.601Z,996.56
2016-05-12T06:06:41.635Z,996.53
2016-05-12T06:07:41.653Z,996.54
2016-05-12T06:08:41.687Z,996.53
2016-05-12T06:09:41.705Z,996.51
2016-05-12T06:10:41.740Z,996.51
2016-05-12T06:11:41.758Z,996.49
2016-05-12T06:12:41.792Z,996.52
2016-05-12T06:13:41.810Z,996.52
2016-05-12T06:14:41.844Z,996.52
2016-05-12T06:15:41.878Z,996.5
2016-05-12T06:16:41.897Z,996.51
2016-05-12T06:17:41.930Z,996.49
2016-05-12T06:18:41.949Z,996.48
2016-05-12T06:19:41.983Z,996.49
2016-05-12T06:20:42.000Z,996.51
2016-05-12T06:21:42.035Z,996.49
2016-05-12T06:22:42.069Z,996.51
2016-05-12T06:23:42.087Z,996.51
2016-05-12T06:24:42.121Z,996.5
2016-05-12T06:25:42.139Z,996.53
2016-05-12T06:26:42.174Z,996.47
2016-05-12T06:27:42.207Z,996.45
2016-05-12T06:28:42.226Z,996.44
2016-05-12T06:29:42.260Z,996.46
2016-05-12T06:30:42.277Z,996.48
2016-05-12T06:31:42.687Z,996.47
2016-05-12T06:32:42.345Z,996.45
2016-05-12T06:33:42.380Z,996.46
2016-05-12T06:34:42.398Z,996.44
2016-05-12T06:35:42.431Z,996.45
2016-05-12T06:36:42.466Z,996.43
2016-05-12T06:37:42.484Z,996.42
2016-05-12T06:38:42.503Z,996.43
2016-05-12T06:39:42.537Z,996.41
2016-05-12T06:40:42.571Z,996.39
2016-05-12T06:41:42.589Z,996.42
2016-05-12T06:42:42.623Z,996.38
2016-05-12T06:43:42.656Z,996.42
2016-05-12T06:44:42.675Z,996.43
2016-05-12T06:45:42.709Z,996.46
2016-05-12T06:46:42.727Z,996.47
2016-05-12T06:47:42.761Z,996.38
2016-05-12T06:48:42.794Z,996.43
2016-05-12T06:49:42.856Z,996.44
2016-05-12T06:50:42.933Z,996.44
2016-05-12T06:51:43.009Z,996.49
2016-05-12T06:52:43.087Z,996.45
2016-05-12T06:53:43.148Z,996.48
2016-05-12T06:54:43.197Z,996.42
2016-05-12T06:55:43.232Z,996.49
2016-05-12T06:56:43.280Z,996.45
2016-05-12T06:57:43.330Z,996.43
2016-05-12T06:58:43.363Z,996.42
2016-05-12T06:59:43.402Z,996.42
2016-05-12T07:00:43.443Z,996.43
2016-05-12T07:01:43.481Z,996.45
2016-05-12T07:02:43.506Z,996.46
2016-05-12T07:03:43.544Z,996.47
2016-05-12T07:04:43.564Z,996.43
2016-05-12T07:05:43.601Z,996.48
2016-05-12T07:06:43.637Z,996.45
2016-05-12T07:07:43.657Z,996.5
2016-05-12T07:08:43.693Z,996.44
2016-05-12T07:09:43.728Z,996.46
2016-05-12T07:10:43.747Z,996.43
2016-05-12T07:11:43.781Z,996.41
2016-05-12T07:12:43.815Z,996.41
2016-05-12T07:13:43.850Z,996.41
2016-05-12T07:14:43.869Z,996.41
2016-05-12T07:15:43.903Z,996.37
2016-05-12T07:16:43.938Z,996.38
2016-05-12T07:17:43.956Z,996.36
2016-05-12T07:18:43.990Z,996.36
2016-05-12T07:19:44.025Z,996.39
2016-05-12T07:20:44.058Z,996.36
2016-05-12T07:21:44.077Z,996.39
2016-05-12T07:22:44.111Z,996.39
2016-05-12T07:23:44.145Z,996.38
2016-05-12T07:24:44.164Z,996.4
2016-05-12T07:25:44.197Z,996.39
2016-05-12T07:26:44.230Z,996.32
2016-05-12T07:27:44.250Z,996.38
2016-05-12T07:28:44.283Z,996.41
2016-05-12T07:29:44.317Z,996.43
2016-05-12T07:30:44.336Z,996.41
2016-05-12T07:31:44.369Z,996.39
2016-05-12T07:32:44.403Z,996.4
2016-05-12T07:33:44.438Z,996.46
2016-05-12T07:34:44.455Z,996.43
2016-05-12T07:35:44.490Z,996.4
2016-05-12T07:36:44.524Z,996.4
2016-05-12T07:37:44.541Z,996.41
2016-05-12T07:38:44.576Z,996.42
2016-05-12T07:39:44.610Z,996.4
2016-05-12T07:40:44.644Z,996.37
2016-05-12T07:41:44.662Z,996.34
2016-05-12T07:42:44.696Z,996.38
2016-05-12T07:43:44.729Z,996.38
2016-05-12T07:44:44.765Z,996.44
2016-05-12T07:45:44.782Z,996.42
2016-05-12T07:46:44.816Z,996.37
2016-05-12T07:47:44.850Z,996.39
2016-05-12T07:48:44.868Z,996.34
2016-05-12T07:49:44.903Z,996.35
2016-05-12T07:50:44.936Z,996.38
2016-05-12T07:51:44.971Z,996.33
2016-05-12T07:52:44.989Z,996.42
2016-05-12T07:53:45.023Z,996.39
2016-05-12T07:54:45.056Z,996.36
2016-05-12T07:55:45.075Z,996.41
2016-05-12T07:56:45.109Z,996.45
2016-05-12T07:57:45.142Z,996.41
2016-05-12T07:58:45.177Z,996.46
2016-05-12T07:59:45.210Z,996.44
2016-05-12T08:00:45.228Z,996.42
2016-05-12T08:01:45.263Z,996.46
2016-05-12T08:02:45.297Z,996.45
2016-05-12T08:03:45.315Z,996.42
2016-05-12T08:04:45.349Z,996.43
2016-05-12T08:05:45.383Z,996.38
2016-05-12T08:06:45.417Z,996.36
2016-05-12T08:07:45.435Z,996.38
2016-05-12T08:08:45.468Z,996.39
2016-05-12T08:09:45.503Z,996.36
2016-05-12T08:10:45.522Z,996.33
2016-05-12T08:11:45.555Z,996.37
2016-05-12T08:12:45.590Z,996.37
2016-05-12T08:13:45.607Z,996.37
2016-05-12T08:14:45.641Z,996.36
2016-05-12T08:15:45.676Z,996.37
2016-05-12T08:16:45.693Z,996.38
2016-05-12T08:17:45.744Z,996.39
2016-05-12T08:18:45.762Z,996.32
2016-05-12T08:19:45.795Z,996.35
2016-05-12T08:20:45.815Z,996.36
2016-05-12T08:21:45.848Z,996.35
2016-05-12T08:22:45.881Z,996.34
2016-05-12T08:23:45.915Z,996.34
2016-05-12T08:24:45.934Z,996.37
2016-05-12T08:25:45.967Z,996.32
2016-05-12T08:26:46.002Z,996.34
2016-05-12T08:27:46.020Z,996.34
2016-05-12T08:28:46.053Z,996.29
2016-05-12T08:29:46.088Z,996.27
2016-05-12T08:30:46.122Z,996.31
2016-05-12T08:31:46.141Z,996.3
2016-05-12T08:32:46.175Z,996.28
2016-05-12T08:33:46.209Z,996.29
2016-05-12T08:34:46.227Z,996.28
2016-05-12T08:35:46.261Z,996.32
2016-05-12T08:36:46.294Z,996.36
2016-05-12T08:37:46.328Z,996.26
2016-05-12T08:38:46.363Z,996.29
2016-05-12T08:39:46.380Z,996.24
2016-05-12T08:40:46.415Z,996.3
2016-05-12T08:41:46.448Z,996.33
2016-05-12T08:42:46.466Z,996.27
2016-05-12T08:43:46.501Z,996.31
2016-05-12T08:44:46.535Z,996.33
2016-05-12T08:45:46.553Z,996.29
2016-05-12T08:46:46.587Z,996.3
2016-05-12T08:47:46.621Z,996.31
2016-05-12T08:48:46.654Z,996.3
2016-05-12T08:49:46.689Z,996.32
2016-05-12T08:50:46.707Z,996.3
2016-05-12T08:51:46.740Z,996.33
2016-05-12T08:52:46.759Z,996.31
2016-05-12T08:53:46.793Z,996.3
2016-05-12T08:54:46.827Z,996.32
2016-05-12T08:55:46.862Z,996.3
2016-05-12T08:56:46.879Z,996.31
2016-05-12T08:57:46.913Z,996.3
2016-05-12T08:58:46.948Z,996.28
2016-05-12T08:59:46.981Z,996.3
2016-05-12T09:00:46.999Z,996.28
2016-05-12T09:01:47.143Z,996.26
2016-05-12T09:02:47.067Z,996.24
2016-05-12T09:03:47.086Z,996.2
2016-05-12T09:04:47.119Z,996.24
2016-05-12T09:05:47.153Z,996.21
2016-05-12T09:06:47.188Z,996.15
2016-05-12T09:07:47.205Z,996.17
2016-05-12T09:08:47.240Z,996.17
2016-05-12T09:09:47.258Z,996.21
2016-05-12T09:10:47.292Z,996.23
2016-05-12T09:11:47.326Z,996.21
2016-05-12T09:12:47.344Z,996.21
2016-05-12T09:13:47.378Z,996.22
2016-05-12T09:14:47.413Z,996.2
2016-05-12T09:15:47.430Z,996.2
2016-05-12T09:16:47.699Z,996.19
2016-05-12T09:17:47.499Z,996.22
2016-05-12T09:18:47.517Z,996.22
2016-05-12T09:19:47.551Z,996.2
2016-05-12T09:20:47.585Z,996.19
2016-05-12T09:21:47.603Z,996.23
2016-05-12T09:22:47.637Z,996.25
2016-05-12T09:23:47.670Z,996.27
2016-05-12T09:24:47.689Z,996.22
2016-05-12T09:25:47.723Z,996.2
2016-05-12T09:26:47.756Z,996.25
2016-05-12T09:27:47.775Z,996.23
2016-05-12T09:28:47.809Z,996.21
2016-05-12T09:29:47.843Z,996.25
2016-05-12T09:30:47.877Z,996.26
2016-05-12T09:31:47.895Z,996.2
2016-05-12T09:32:47.930Z,996.19
2016-05-12T09:33:47.963Z,996.21
2016-05-12T09:34:47.981Z,996.18
2016-05-12T09:35:48.016Z,996.22
2016-05-12T09:36:48.050Z,996.19
2016-05-12T09:37:48.068Z,996.15
2016-05-12T09:38:48.102Z,996.15
2016-05-12T09:39:48.136Z,996.22
2016-05-12T09:40:48.154Z,996.2
2016-05-12T09:41:48.188Z,996.12
2016-05-12T09:42:48.221Z,996.11
2016-05-12T09:43:48.255Z,996.12
2016-05-12T09:44:48.274Z,996.15
2016-05-12T09:45:48.307Z,996.12
2016-05-12T09:46:48.343Z,996.16
2016-05-12T09:47:48.360Z,996.14
2016-05-12T09:48:48.394Z,996.11
2016-05-12T09:49:48.413Z,996.08
2016-05-12T09:50:48.446Z,996.1
2016-05-12T09:51:48.481Z,996.13
2016-05-12T09:52:48.514Z,996.09
2016-05-12T09:53:48.532Z,996.1
2016-05-12T09:54:48.567Z,996.16
2016-05-12T09:55:48.585Z,996.13
2016-05-12T09:56:48.619Z,996.19
2016-05-12T09:57:48.653Z,996.14
2016-05-12T09:58:48.686Z,996.13
2016-05-12T09:59:48.705Z,996.2
2016-05-12T10:00:48.739Z,996.15
2016-05-12T10:01:48.882Z,996.09
2016-05-12T10:02:48.792Z,996.16
2016-05-12T10:03:48.826Z,996.17
2016-05-12T10:04:48.875Z,996.2
2016-05-12T10:05:48.878Z,996.12
2016-05-12T10:06:48.911Z,996.16
2016-05-12T10:07:48.945Z,996.15
2016-05-12T10:08:48.980Z,996.13
2016-05-12T10:09:48.997Z,996.17
2016-05-12T10:10:49.032Z,996.15
2016-05-12T10:11:49.049Z,996.19
2016-05-12T10:12:49.083Z,996.17
2016-05-12T10:13:49.118Z,996.25
2016-05-12T10:14:49.135Z,996.2
2016-05-12T10:15:49.170Z,996.19
2016-05-12T10:16:49.204Z,996.14
2016-05-12T10:17:49.222Z,996.16
2016-05-12T10:18:49.257Z,996.2
2016-05-12T10:19:49.290Z,996.11
2016-05-12T10:20:49.309Z,996.12
2016-05-12T10:21:49.357Z,996.13
2016-05-12T10:22:49.377Z,996.12
2016-05-12T10:23:49.395Z,996.13
2016-05-12T10:24:49.429Z,996.13
2016-05-12T10:25:49.462Z,996.14
2016-05-12T10:26:49.481Z,996.15
2016-05-12T10:27:49.515Z,996.15
2016-05-12T10:28:49.548Z,996.21
2016-05-12T10:29:49.567Z,996.16
2016-05-12T10:30:49.600Z,996.24
2016-05-12T10:31:49.634Z,996.2
2016-05-12T10:32:49.654Z,996.26
2016-05-12T10:33:49.686Z,996.2
2016-05-12T10:34:49.721Z,996.18
2016-05-12T10:35:49.755Z,996.2
2016-05-12T10:36:49.773Z,996.12
2016-05-12T10:37:49.808Z,996.14
2016-05-12T10:38:49.857Z,996.28
2016-05-12T10:39:49.860Z,996.2
2016-05-12T10:40:49.940Z,996.09
2016-05-12T10:41:49.911Z,996.13
2016-05-12T10:42:49.946Z,996.13
2016-05-12T10:43:49.980Z,996.13
2016-05-12T10:44:49.998Z,996.15
2016-05-12T10:45:50.032Z,996.2
2016-05-12T10:46:50.066Z,996.09
2016-05-12T10:47:50.085Z,996.1
2016-05-12T10:48:50.118Z,996.07
2016-05-12T10:49:50.151Z,996.11
2016-05-12T10:50:50.186Z,996.16
2016-05-12T10:51:50.205Z,996.2
2016-05-12T10:52:50.238Z,996.15
2016-05-12T10:53:50.273Z,996.14
2016-05-12T10:54:50.290Z,996.13
2016-05-12T10:55:50.324Z,996.12
2016-05-12T10:56:50.359Z,996.14
2016-05-12T10:57:50.393Z,996.13
2016-05-12T10:58:50.411Z,996.15
2016-05-12T10:59:50.444Z,996.12
2016-05-12T11:00:50.462Z,996.14
2016-05-12T11:01:51.045Z,996.18
2016-05-12T11:02:50.530Z,996.18
2016-05-12T11:03:50.549Z,996.19
2016-05-12T11:04:50.583Z,996.2
2016-05-12T11:05:50.617Z,996.14
2016-05-12T11:06:50.636Z,996.18
2016-05-12T11:07:50.670Z,996.2
2016-05-12T11:08:50.702Z,996.21
2016-05-12T11:09:50.722Z,996.15
2016-05-12T11:10:50.756Z,996.14
2016-05-12T11:11:50.789Z,996.12
2016-05-12T11:12:50.808Z,996.22
2016-05-12T11:13:50.841Z,996.15
2016-05-12T11:14:50.875Z,996.12
2016-05-12T11:15:50.910Z,996.13
2016-05-12T11:16:50.927Z,996.14
2016-05-12T11:17:50.977Z,996.23
2016-05-12T11:18:50.996Z,996.15
2016-05-12T11:19:51.013Z,996.21
2016-05-12T11:20:51.048Z,996.22
2016-05-12T11:21:51.066Z,996.22
2016-05-12T11:22:51.100Z,996.19
2016-05-12T11:23:51.134Z,996.25
2016-05-12T11:24:51.152Z,996.23
2016-05-12T11:25:51.187Z,996.28
2016-05-12T11:26:51.220Z,996.27
2016-05-12T11:27:51.254Z,996.25
2016-05-12T11:28:51.288Z,996.24
2016-05-12T11:29:51.307Z,996.23
2016-05-12T11:30:51.340Z,996.24
2016-05-12T11:31:51.358Z,996.28
2016-05-12T11:32:51.393Z,996.25
2016-05-12T11:33:51.426Z,996.25
2016-05-12T11:34:51.444Z,996.25
2016-05-12T11:35:51.479Z,996.25
2016-05-12T11:36:51.513Z,996.29
2016-05-12T11:37:51.531Z,996.28
2016-05-12T11:38:51.564Z,996.32
2016-05-12T11:39:51.600Z,996.29
2016-05-12T11:40:51.633Z,996.31
2016-05-12T11:41:51.651Z,996.32
2016-05-12T11:42:51.686Z,996.25
2016-05-12T11:43:51.719Z,996.24
2016-05-12T11:44:51.738Z,996.24
2016-05-12T11:45:51.772Z,996.24
2016-05-12T11:46:51.805Z,996.22
2016-05-12T11:47:51.839Z,996.19
2016-05-12T11:48:51.857Z,996.18
2016-05-12T11:49:51.892Z,996.15
2016-05-12T11:50:51.910Z,996.19
2016-05-12T11:51:51.943Z,996.2
2016-05-12T11:52:51.977Z,996.21
2016-05-12T11:53:51.996Z,996.21
2016-05-12T11:54:52.046Z,996.23
2016-05-12T11:55:52.079Z,996.23
2016-05-12T11:56:52.098Z,996.22
2016-05-12T11:57:52.116Z,996.19
2016-05-12T11:58:52.150Z,996.19
2016-05-12T11:59:52.184Z,996.18
2016-05-12T12:00:52.203Z,996.21
2016-05-12T12:01:52.237Z,996.14
2016-05-12T12:02:52.271Z,996.19
2016-05-12T12:03:52.289Z,996.19
2016-05-12T12:04:52.338Z,996.18
2016-05-12T12:05:52.356Z,996.2
2016-05-12T12:06:52.390Z,996.21
2016-05-12T12:07:52.408Z,996.19
2016-05-12T12:08:52.443Z,996.18
2016-05-12T12:09:52.477Z,996.17
2016-05-12T12:10:52.494Z,996.2
2016-05-12T12:11:52.528Z,996.19
2016-05-12T12:12:52.563Z,996.19
2016-05-12T12:13:52.596Z,996.19
2016-05-12T12:14:52.615Z,996.19
2016-05-12T12:15:52.649Z,996.15
2016-05-12T12:16:52.667Z,996.21
2016-05-12T12:17:52.702Z,996.21
2016-05-12T12:18:52.735Z,996.19
2016-05-12T12:19:52.769Z,996.17
2016-05-12T12:20:52.787Z,996.13
2016-05-12T12:21:52.822Z,996.14
2016-05-12T12:22:52.840Z,996.11
2016-05-12T12:23:52.874Z,996.14
2016-05-12T12:24:52.907Z,996.11
2016-05-12T12:25:52.941Z,996.15
2016-05-12T12:26:52.960Z,996.13
2016-05-12T12:27:52.993Z,996.1
2016-05-12T12:28:53.028Z,996.08
2016-05-12T12:29:53.045Z,996.08
2016-05-12T12:30:53.079Z,996.11